Time;durP1;ratioP1;P1;durP2;ratioP2;P2;SDS_P1;SDS_P2;PMS_P1;PMS_P2;Temp;Humidity;BMP_temperature;BMP_pressure;BME280_temperature;BME280_humidity;BME280_pressure;Samples;Min_cycle;Max_cycle;Signal;HPM_P1;HPM_P2
2022/05/09 00:01:55;;;;;;;10.68;2.53;;;8.50;97.40;;;;;;5073658;28;19916;-48
2022/05/09 00:04:21;;;;;;;9.30;2.47;;;8.50;97.30;;;;;;5073579;28;20036;-47
2022/05/09 00:06:48;;;;;;;13.55;3.03;;;8.40;96.80;;;;;;5072269;28;20063;-47
2022/05/09 00:09:14;;;;;;;12.35;3.03;;;8.30;96.80;;;;;;5072853;28;20036;-47
2022/05/09 00:11:40;;;;;;;15.18;3.00;;;8.30;97.20;;;;;;5072305;28;20037;-47
2022/05/09 00:14:06;;;;;;;16.30;5.10;;;8.30;97.20;;;;;;5073180;28;20086;-47
2022/05/09 00:16:34;;;;;;;12.80;2.80;;;8.30;97.40;;;;;;5075064;28;20097;-47
2022/05/09 00:19:03;;;;;;;16.38;3.60;;;8.30;97.50;;;;;;5072136;28;20059;-47
2022/05/09 00:21:31;;;;;;;10.75;4.15;;;8.30;97.70;;;;;;5072649;28;20467;-47
2022/05/09 00:23:57;;;;;;;8.95;3.33;;;8.30;97.80;;;;;;5071308;28;20044;-48
2022/05/09 00:26:24;;;;;;;11.50;3.37;;;8.20;97.70;;;;;;5075769;28;20040;-48
2022/05/09 00:28:49;;;;;;;12.45;3.75;;;8.20;97.50;;;;;;5072557;28;20115;-48
2022/05/09 00:31:15;;;;;;;24.33;3.30;;;8.10;97.60;;;;;;5078960;28;20120;-48
2022/05/09 00:33:40;;;;;;;7.97;3.20;;;8.10;97.80;;;;;;5071926;28;20036;-47
2022/05/09 00:36:06;;;;;;;15.13;4.50;;;8.10;98.10;;;;;;5071788;28;20094;-48
2022/05/09 00:38:32;;;;;;;18.75;4.88;;;8.10;98.40;;;;;;5072303;28;20060;-48
2022/05/09 00:43:41;;;;;;;10.85;4.60;;;8.10;98.50;;;;;;5072488;28;20066;-49
2022/05/09 00:46:08;;;;;;;12.23;3.93;;;8.10;98.80;;;;;;5071775;28;20036;-48
2022/05/09 00:48:34;;;;;;;13.48;5.32;;;8.10;98.90;;;;;;5071941;28;20040;-47
2022/05/09 00:51:01;;;;;;;15.82;4.75;;;8.10;99.00;;;;;;5072644;28;20044;-48
2022/05/09 00:53:30;;;;;;;15.43;4.50;;;8.10;99.30;;;;;;5072073;28;20040;-48
2022/05/09 00:56:00;;;;;;;14.27;4.18;;;8.10;99.30;;;;;;5081649;28;20044;-48
2022/05/09 00:58:47;;;;;;;13.30;3.63;;;8.10;99.40;;;;;;5078672;28;20051;-50
2022/05/09 01:01:14;;;;;;;15.40;5.45;;;8.10;99.50;;;;;;5084156;28;20039;-47
2022/05/09 01:03:48;;;;;;;8.02;3.10;;;8.10;99.60;;;;;;5078986;28;20108;-49
2022/05/09 01:06:14;;;;;;;12.75;4.38;;;8.00;99.00;;;;;;5075548;28;20064;-47
2022/05/09 01:08:40;;;;;;;16.98;4.75;;;7.90;98.80;;;;;;5071629;28;20079;-49
2022/05/09 01:11:14;;;;;;;10.07;3.45;;;7.90;99.00;;;;;;5073541;28;20063;-47
2022/05/09 01:13:45;;;;;;;15.68;3.95;;;7.70;99.30;;;;;;5079932;28;20447;-49
2022/05/09 01:16:13;;;;;;;17.73;5.10;;;7.70;99.60;;;;;;5088206;28;20036;-47
2022/05/09 01:18:38;;;;;;;10.35;4.25;;;7.70;99.80;;;;;;5081312;28;20494;-47
2022/05/09 01:21:34;;;;;;;12.18;3.80;;;7.70;99.90;;;;;;5079803;28;20098;-47
2022/05/09 01:24:00;;;;;;;17.40;4.43;;;7.70;99.90;;;;;;5070440;28;20037;-48
2022/05/09 01:26:26;;;;;;;;;;;7.80;99.90;;;;;;5072725;28;20044;-47
2022/05/09 01:28:51;;;;;;;14.10;5.22;;;7.80;99.90;;;;;;5071513;28;19930;-47
2022/05/09 01:31:18;;;;;;;15.17;4.23;;;7.80;99.90;;;;;;5070278;28;20033;-47
2022/05/09 01:33:50;;;;;;;11.48;3.55;;;7.80;99.90;;;;;;5076206;28;20497;-47
2022/05/09 01:36:20;;;;;;;13.60;4.30;;;7.80;99.90;;;;;;5070208;28;20039;-47
2022/05/09 01:38:55;;;;;;;13.68;4.30;;;7.80;99.90;;;;;;5071689;28;20068;-48
2022/05/09 01:41:21;;;;;;;6.75;3.15;;;7.70;99.90;;;;;;5069135;28;20047;-47
2022/05/09 01:43:50;;;;;;;11.50;4.30;;;7.70;99.70;;;;;;5075178;28;20036;-47
2022/05/09 01:46:19;;;;;;;9.05;4.05;;;7.60;99.60;;;;;;5072366;28;20047;-47
2022/05/09 01:51:30;;;;;;;8.70;4.10;;;7.40;99.90;;;;;;5070946;28;20315;-47
2022/05/09 01:53:56;;;;;;;12.63;3.90;;;7.40;99.90;;;;;;5071267;28;20029;-50
2022/05/09 01:56:27;;;;;;;16.25;5.13;;;7.40;99.90;;;;;;5070738;28;20045;-48
2022/05/09 01:58:53;;;;;;;16.48;4.93;;;7.40;99.90;;;;;;5076925;28;20384;-47
2022/05/09 02:01:21;;;;;;;17.65;6.15;;;7.40;99.90;;;;;;5070939;28;20045;-47
2022/05/09 02:03:47;;;;;;;9.73;4.47;;;7.50;99.90;;;;;;5073735;28;20497;-47
2022/05/09 02:06:14;;;;;;;;;;;7.50;99.90;;;;;;5079110;28;20036;-47
2022/05/09 02:08:40;;;;;;;19.77;5.63;;;7.50;99.90;;;;;;5088494;28;19923;-47
2022/05/09 02:11:06;;;;;;;10.30;4.07;;;7.50;99.90;;;;;;5079919;28;20515;-49
2022/05/09 02:13:33;;;;;;;10.32;3.60;;;7.50;99.90;;;;;;5070670;28;20043;-47
2022/05/09 02:15:59;;;;;;;9.63;3.85;;;7.40;99.90;;;;;;5069537;28;20040;-50
2022/05/09 02:18:24;;;;;;;13.23;4.38;;;7.30;99.90;;;;;;5070697;28;20044;-48
2022/05/09 02:20:51;;;;;;;16.30;4.13;;;7.30;99.90;;;;;;5071002;28;20032;-47
2022/05/09 02:23:17;;;;;;;;;;;7.30;99.90;;;;;;5070969;28;20105;-47
2022/05/09 02:25:44;;;;;;;14.32;4.72;;;7.30;99.90;;;;;;5069739;28;19931;-49
2022/05/09 02:28:11;;;;;;;15.52;4.25;;;7.40;99.90;;;;;;5074619;28;20080;-47
2022/05/09 02:30:38;;;;;;;11.93;4.80;;;7.30;99.90;;;;;;5078440;28;20123;-47
2022/05/09 02:33:04;;;;;;;16.30;4.65;;;7.30;99.90;;;;;;5071288;28;20340;-48
2022/05/09 02:35:30;;;;;;;20.45;4.80;;;7.30;99.90;;;;;;5069686;28;20044;-49
2022/05/09 02:37:56;;;;;;;11.50;4.77;;;7.30;99.90;;;;;;5070440;28;20058;-49
2022/05/09 02:40:24;;;;;;;17.67;4.70;;;7.30;99.90;;;;;;5070125;28;20114;-50
2022/05/09 02:42:50;;;;;;;22.52;6.45;;;7.30;99.90;;;;;;5084194;28;20040;-48
2022/05/09 02:45:16;;;;;;;18.33;5.55;;;7.20;99.90;;;;;;5077438;28;20120;-47
2022/05/09 02:47:41;;;;;;;10.47;5.20;;;7.20;99.90;;;;;;5082754;28;20039;-48
2022/05/09 02:50:09;;;;;;;12.97;3.67;;;7.30;99.90;;;;;;5071553;28;20637;-47
2022/05/09 02:52:37;;;;;;;14.65;4.78;;;7.20;99.90;;;;;;5070096;28;20086;-49
2022/05/09 02:55:05;;;;;;;12.70;4.40;;;7.20;99.90;;;;;;5067783;28;20490;-47
2022/05/09 02:57:30;;;;;;;14.10;3.88;;;7.10;99.90;;;;;;5069653;28;20455;-49
2022/05/09 02:59:57;;;;;;;7.30;3.17;;;7.00;99.90;;;;;;5070256;28;20040;-47
2022/05/09 03:02:23;;;;;;;12.35;5.22;;;6.90;99.90;;;;;;5069001;28;20041;-47
2022/05/09 03:04:48;;;;;;;12.48;4.55;;;6.90;99.90;;;;;;5069040;28;20037;-47
2022/05/09 03:07:18;;;;;;;7.60;3.80;;;6.80;99.90;;;;;;5069948;28;20516;-47
2022/05/09 03:09:47;;;;;;;11.32;4.30;;;6.80;99.90;;;;;;5069830;28;20049;-48
2022/05/09 03:12:13;;;;;;;18.25;5.20;;;6.70;99.90;;;;;;5069528;28;20158;-47
2022/05/09 03:14:39;;;;;;;7.57;3.22;;;6.70;99.90;;;;;;5069017;28;20051;-47
2022/05/09 03:17:07;;;;;;;6.03;2.85;;;6.60;99.90;;;;;;5072235;28;20041;-47
2022/05/09 03:19:33;;;;;;;11.15;3.72;;;6.50;99.90;;;;;;5069530;28;20036;-47
2022/05/09 03:21:59;;;;;;;11.20;4.53;;;6.40;99.90;;;;;;5069336;28;20060;-47
2022/05/09 03:24:25;;;;;;;10.07;4.38;;;6.40;99.90;;;;;;5069346;28;20036;-48
2022/05/09 03:26:51;;;;;;;10.80;4.40;;;6.40;99.90;;;;;;5068245;28;20033;-48
2022/05/09 03:29:24;;;;;;;12.68;4.43;;;6.30;99.90;;;;;;5083396;28;20040;-47
2022/05/09 03:31:52;;;;;;;11.23;4.93;;;6.30;99.90;;;;;;5069617;28;20551;-47
2022/05/09 03:34:17;;;;;;;13.93;5.28;;;6.30;99.90;;;;;;5069037;28;20516;-48
2022/05/09 03:36:43;;;;;;;11.97;4.93;;;6.20;99.90;;;;;;5076576;28;20044;-47
2022/05/09 03:39:09;;;;;;;10.73;3.30;;;6.30;99.90;;;;;;5076324;28;20294;-48
2022/05/09 03:41:34;;;;;;;10.55;3.60;;;6.30;99.90;;;;;;5069988;28;20036;-47
2022/05/09 03:44:00;;;;;;;8.83;3.60;;;6.30;99.90;;;;;;5069773;28;20047;-47
2022/05/09 03:46:26;;;;;;;7.43;4.53;;;6.30;99.90;;;;;;5069243;28;20063;-47
2022/05/09 03:48:51;;;;;;;11.13;4.27;;;6.30;99.90;;;;;;5076126;28;20028;-47
2022/05/09 03:51:17;;;;;;;14.63;5.87;;;6.40;99.90;;;;;;5083874;28;20416;-49
2022/05/09 03:53:42;;;;;;;14.67;4.43;;;6.40;99.90;;;;;;5070349;28;20044;-47
2022/05/09 03:56:08;;;;;;;11.30;4.90;;;6.40;99.90;;;;;;5068504;28;20036;-47
2022/05/09 03:58:34;;;;;;;7.57;3.27;;;6.40;99.90;;;;;;5070720;28;20045;-48
2022/05/09 04:01:00;;;;;;;11.27;4.68;;;6.50;99.90;;;;;;5069287;28;20342;-48
2022/05/09 04:03:26;;;;;;;9.27;4.20;;;6.50;99.90;;;;;;5067830;28;20124;-48
2022/05/09 04:05:53;;;;;;;13.40;4.25;;;6.40;99.90;;;;;;5066848;28;20178;-48
2022/05/09 04:08:20;;;;;;;6.68;4.03;;;6.40;99.90;;;;;;5070427;28;20528;-47
2022/05/09 04:10:47;;;;;;;14.43;4.72;;;6.30;99.90;;;;;;5071822;28;20044;-47
2022/05/09 04:13:13;;;;;;;;;;;6.30;99.90;;;;;;5071455;28;20080;-47
2022/05/09 04:18:26;;;;;;;12.02;4.35;;;6.30;99.90;;;;;;5056703;28;20049;-48
2022/05/09 04:20:52;;;;;;;11.73;5.78;;;6.30;99.90;;;;;;5073846;28;20502;-48
2022/05/09 04:23:19;;;;;;;11.40;4.90;;;6.30;99.90;;;;;;5070307;28;20513;-47
2022/05/09 04:25:45;;;;;;;;;;;6.30;99.90;;;;;;5068844;28;20039;-51
2022/05/09 04:28:11;;;;;;;10.88;5.40;;;6.30;99.90;;;;;;5071484;28;19916;-47
2022/05/09 04:30:38;;;;;;;16.60;4.93;;;6.30;99.90;;;;;;5069013;28;20442;-48
2022/05/09 04:33:06;;;;;;;11.02;5.25;;;6.30;99.90;;;;;;5074057;28;20102;-48
2022/05/09 04:35:33;;;;;;;15.95;6.45;;;6.30;99.90;;;;;;5071828;28;20053;-47
2022/05/09 04:37:59;;;;;;;14.13;6.65;;;6.30;99.90;;;;;;5071911;28;20047;-47
2022/05/09 04:40:29;;;;;;;13.63;5.80;;;6.40;99.90;;;;;;5073321;28;20040;-47
2022/05/09 04:42:56;;;;;;;19.58;6.68;;;6.40;99.90;;;;;;5075250;28;20051;-47
2022/05/09 04:45:23;;;;;;;10.75;6.13;;;6.40;99.90;;;;;;5077649;28;20689;-48
2022/05/09 04:47:50;;;;;;;;;;;6.40;99.90;;;;;;5074711;28;20123;-47
2022/05/09 04:50:17;;;;;;;;;;;6.40;99.90;;;;;;5072917;28;19920;-48
2022/05/09 04:52:42;;;;;;;17.08;6.90;;;6.50;99.90;;;;;;5081380;28;19920;-48
2022/05/09 04:55:09;;;;;;;18.77;7.50;;;6.50;99.90;;;;;;5071483;28;20053;-47
2022/05/09 04:57:34;;;;;;;28.58;10.38;;;6.50;99.90;;;;;;5071936;28;20558;-47
2022/05/09 05:00:01;;;;;;;22.07;8.57;;;6.50;99.90;;;;;;5078275;28;20040;-47
2022/05/09 05:02:27;;;;;;;26.35;10.73;;;6.50;99.90;;;;;;5077961;28;20500;-48
2022/05/09 05:04:53;;;;;;;23.23;9.77;;;6.50;99.90;;;;;;5070235;28;20117;-48
2022/05/09 05:07:18;;;;;;;15.13;9.07;;;6.50;99.90;;;;;;5072032;28;20413;-48
2022/05/09 05:09:44;;;;;;;22.47;8.63;;;6.60;99.90;;;;;;5071791;28;20078;-49
2022/05/09 05:12:09;;;;;;;22.47;10.27;;;6.60;99.90;;;;;;5078917;28;20040;-49
2022/05/09 05:14:35;;;;;;;16.98;8.27;;;6.70;99.90;;;;;;5071171;28;20042;-48
2022/05/09 05:17:01;;;;;;;19.80;9.17;;;6.90;99.90;;;;;;5079633;28;20046;-51
2022/05/09 05:19:28;;;;;;;25.80;9.03;;;7.00;99.90;;;;;;5071218;28;20583;-47
2022/05/09 05:21:56;;;;;;;19.58;8.73;;;7.10;99.90;;;;;;5072157;28;20037;-48
2022/05/09 05:24:21;;;;;;;17.88;8.80;;;7.20;99.90;;;;;;5071199;28;20375;-47
2022/05/09 05:26:47;;;;;;;20.00;7.73;;;7.40;99.90;;;;;;5070693;28;20095;-48
2022/05/09 05:29:14;;;;;;;26.27;10.50;;;7.50;99.90;;;;;;5071000;28;20044;-48
2022/05/09 05:31:40;;;;;;;18.95;9.13;;;7.60;99.90;;;;;;5067791;28;20662;-49
2022/05/09 05:34:05;;;;;;;18.60;8.23;;;7.70;99.90;;;;;;5072464;28;20067;-47
2022/05/09 05:36:31;;;;;;;21.93;8.03;;;7.90;99.90;;;;;;5071815;28;20032;-48
2022/05/09 05:38:56;;;;;;;16.17;8.97;;;8.00;99.90;;;;;;5070203;28;20092;-47
2022/05/09 05:41:22;;;;;;;24.77;8.20;;;8.10;99.90;;;;;;5071868;28;20045;-48
2022/05/09 05:43:48;;;;;;;19.65;7.70;;;8.20;99.90;;;;;;5071675;28;20039;-48
2022/05/09 05:46:14;;;;;;;21.35;7.35;;;8.30;99.90;;;;;;5070764;28;20101;-49
2022/05/09 05:48:40;;;;;;;18.92;8.43;;;8.50;99.90;;;;;;5085588;28;20325;-47
2022/05/09 05:51:06;;;;;;;29.55;7.50;;;8.60;99.90;;;;;;5085213;28;20038;-47
2022/05/09 05:53:34;;;;;;;22.15;7.68;;;8.70;99.90;;;;;;5086043;28;20032;-48
2022/05/09 05:55:59;;;;;;;22.95;8.40;;;8.80;99.90;;;;;;5070818;28;20040;-48
2022/05/09 05:58:27;;;;;;;19.08;8.70;;;8.90;99.90;;;;;;5077238;28;20044;-48
2022/05/09 06:00:53;;;;;;;16.85;8.02;;;9.00;99.90;;;;;;5091921;28;20054;-48
2022/05/09 06:03:20;;;;;;;18.92;7.75;;;9.10;99.90;;;;;;5084292;28;20094;-49
2022/05/09 06:05:46;;;;;;;48.67;10.63;;;9.20;99.90;;;;;;5070681;28;20120;-47
2022/05/09 06:08:11;;;;;;;18.85;8.23;;;9.30;99.90;;;;;;5073895;28;20362;-48
2022/05/09 06:10:37;;;;;;;23.70;7.93;;;9.50;99.90;;;;;;5072039;28;20052;-48
2022/05/09 06:13:04;;;;;;;20.60;8.83;;;9.50;99.90;;;;;;5074395;28;20047;-47
2022/05/09 06:15:33;;;;;;;23.15;7.55;;;9.70;99.90;;;;;;5071052;28;20551;-52
2022/05/09 06:18:02;;;;;;;21.90;6.35;;;9.80;99.90;;;;;;5057108;28;20498;-48
2022/05/09 06:20:31;;;;;;;22.10;8.07;;;9.90;99.90;;;;;;5070561;28;20040;-53
2022/05/09 06:22:59;;;;;;;35.80;8.50;;;10.00;99.90;;;;;;5064866;28;20505;-47
2022/05/09 06:25:25;;;;;;;26.52;7.00;;;10.20;99.90;;;;;;5066352;28;20037;-48
2022/05/09 06:27:52;;;;;;;27.23;7.28;;;10.30;99.90;;;;;;5077615;28;20537;-50
2022/05/09 06:30:19;;;;;;;26.10;6.85;;;10.40;99.90;;;;;;5065240;28;20068;-50
2022/05/09 06:32:45;;;;;;;137.85;15.52;;;10.50;99.90;;;;;;5078060;28;20067;-47
2022/05/09 06:35:15;;;;;;;29.92;7.43;;;10.60;99.90;;;;;;5080351;28;20087;-47
2022/05/09 06:37:41;;;;;;;30.80;8.10;;;10.70;99.90;;;;;;5065390;28;20036;-49
2022/05/09 06:40:08;;;;;;;;;;;10.80;99.90;;;;;;5068443;28;20086;-49
2022/05/09 06:42:35;;;;;;;18.98;5.93;;;10.90;99.90;;;;;;5065432;28;19971;-47
2022/05/09 06:45:01;;;;;;;20.30;6.28;;;11.00;99.90;;;;;;5058841;28;20212;-47
2022/05/09 06:47:26;;;;;;;24.77;7.55;;;11.00;99.90;;;;;;5051746;28;20044;-48
2022/05/09 06:49:52;;;;;;;20.65;7.88;;;11.20;99.90;;;;;;5051664;28;20073;-50
2022/05/09 06:52:18;;;;;;;15.23;6.80;;;11.20;99.90;;;;;;5060321;28;20035;-47
2022/05/09 06:54:43;;;;;;;24.83;6.65;;;11.40;99.90;;;;;;5060045;28;20320;-46
2022/05/09 06:57:09;;;;;;;22.55;7.38;;;11.40;99.90;;;;;;5056722;28;20116;-47
2022/05/09 06:59:35;;;;;;;20.67;7.37;;;11.50;99.90;;;;;;5055609;28;20044;-47
2022/05/09 07:02:01;;;;;;;13.15;6.68;;;11.60;99.90;;;;;;5054059;28;20033;-51
2022/05/09 07:04:27;;;;;;;22.67;6.32;;;11.70;99.90;;;;;;5057019;28;20028;-48
2022/05/09 07:06:53;;;;;;;;;;;11.80;99.90;;;;;;5051900;28;20075;-46
2022/05/09 07:09:19;;;;;;;16.52;6.03;;;11.90;99.90;;;;;;5057932;28;19916;-49
2022/05/09 07:11:44;;;;;;;25.10;7.90;;;12.00;99.90;;;;;;5052038;28;20587;-48
2022/05/09 07:14:10;;;;;;;17.90;5.80;;;12.20;99.90;;;;;;5057109;28;20036;-50
2022/05/09 07:16:36;;;;;;;19.15;7.35;;;12.30;99.90;;;;;;5055680;28;20712;-47
2022/05/09 07:19:04;;;;;;;17.52;6.50;;;12.40;99.90;;;;;;5056874;28;20119;-47
2022/05/09 07:21:31;;;;;;;15.10;6.60;;;12.50;99.90;;;;;;5055715;28;20040;-49
2022/05/09 07:23:57;;;;;;;19.08;6.93;;;12.50;99.90;;;;;;5059789;28;20501;-51
2022/05/09 07:26:22;;;;;;;20.00;6.50;;;12.60;99.90;;;;;;5052723;28;20036;-48
2022/05/09 07:28:48;;;;;;;18.63;7.37;;;12.70;99.90;;;;;;5053475;28;20041;-48
2022/05/09 07:31:14;;;;;;;14.38;6.30;;;12.80;99.80;;;;;;5054601;28;20062;-48
2022/05/09 07:33:39;;;;;;;20.20;7.85;;;12.90;99.60;;;;;;5055558;28;20037;-48
2022/05/09 07:36:05;;;;;;;23.10;6.13;;;13.00;99.50;;;;;;5058772;28;20037;-49
2022/05/09 07:38:31;;;;;;;15.95;5.15;;;13.10;99.30;;;;;;5057177;28;20048;-48
2022/05/09 07:40:57;;;;;;;15.27;5.70;;;13.30;99.10;;;;;;5053896;28;21344;-49
2022/05/09 07:43:26;;;;;;;17.10;5.97;;;13.30;98.80;;;;;;5057916;28;20052;-50
2022/05/09 07:45:54;;;;;;;17.67;7.35;;;13.40;98.60;;;;;;5058958;28;20029;-51
2022/05/09 07:48:20;;;;;;;14.27;6.70;;;13.50;98.50;;;;;;5058650;28;20413;-48
2022/05/09 07:50:46;;;;;;;15.68;5.95;;;13.60;98.30;;;;;;5059402;28;20044;-48
2022/05/09 07:53:15;;;;;;;21.63;6.57;;;13.70;98.10;;;;;;5059501;28;20075;-47
2022/05/09 07:55:42;;;;;;;24.42;7.13;;;13.80;98.30;;;;;;5049838;28;20036;-51
2022/05/09 07:58:09;;;;;;;14.77;5.53;;;14.00;98.30;;;;;;5050709;28;20048;-47
2022/05/09 08:00:36;;;;;;;19.05;5.50;;;14.10;97.70;;;;;;5053180;28;20037;-48
2022/05/09 08:03:02;;;;;;;15.05;6.60;;;14.30;97.70;;;;;;5057109;28;20041;-48
2022/05/09 08:05:28;;;;;;;20.83;6.60;;;14.40;97.90;;;;;;5049225;28;20040;-49
2022/05/09 08:07:54;;;;;;;23.35;6.32;;;14.50;97.50;;;;;;5055207;28;20040;-48
2022/05/09 08:10:21;;;;;;;15.93;6.32;;;14.60;96.90;;;;;;5059155;28;20489;-48
2022/05/09 08:12:47;;;;;;;13.73;5.45;;;14.70;96.90;;;;;;5059074;28;20044;-48
2022/05/09 08:15:15;;;;;;;10.10;5.28;;;14.80;96.10;;;;;;5059105;28;20378;-51
2022/05/09 08:17:41;;;;;;;14.23;5.47;;;15.00;96.10;;;;;;5062008;28;20036;-48
2022/05/09 08:20:08;;;;;;;15.85;4.70;;;15.10;95.60;;;;;;5060888;28;20032;-48
2022/05/09 08:22:34;;;;;;;9.90;4.43;;;15.10;94.80;;;;;;5059405;28;20070;-49
2022/05/09 08:25:04;;;;;;;16.85;5.15;;;15.20;94.10;;;;;;5055198;28;20571;-48
2022/05/09 08:27:29;;;;;;;15.93;4.22;;;15.30;94.10;;;;;;5053442;28;20383;-49
2022/05/09 08:29:56;;;;;;;15.10;4.75;;;15.40;93.50;;;;;;5058155;28;20047;-47
2022/05/09 08:32:23;;;;;;;13.95;5.10;;;15.50;93.40;;;;;;5055768;28;20052;-48
2022/05/09 08:34:51;;;;;;;10.98;4.45;;;15.50;93.00;;;;;;5055813;28;20078;-49
2022/05/09 08:37:18;;;;;;;12.02;4.70;;;15.60;91.80;;;;;;5056628;28;20065;-48
2022/05/09 08:39:47;;;;;;;13.95;4.88;;;15.70;91.90;;;;;;5050642;28;20086;-48
2022/05/09 08:42:18;;;;;;;16.60;4.32;;;15.80;91.20;;;;;;5062316;28;20520;-48
2022/05/09 08:45:21;;;;;;;12.07;4.70;;;15.90;91.40;;;;;;5049811;28;20541;-50
2022/05/09 08:48:14;;;;;;;12.63;4.30;;;16.00;90.60;;;;;;5056150;28;20342;-48
2022/05/09 08:50:58;;;;;;;14.20;3.92;;;16.00;91.50;;;;;;5054773;28;20036;-52
2022/05/09 08:53:26;;;;;;;11.80;3.50;;;16.10;90.90;;;;;;5059540;28;20465;-48
2022/05/09 08:55:53;;;;;;;9.45;3.38;;;16.20;89.80;;;;;;5051273;28;20091;-50
2022/05/09 08:58:49;;;;;;;12.43;3.67;;;16.40;90.00;;;;;;5055319;28;20037;-48
2022/05/09 09:01:24;;;;;;;8.27;2.78;;;16.50;87.20;;;;;;5055841;28;20461;-49
2022/05/09 09:04:01;;;;;;;11.40;3.40;;;16.60;86.60;;;;;;5056504;28;20105;-50
2022/05/09 09:06:45;;;;;;;9.25;2.95;;;16.70;85.40;;;;;;5059593;28;20062;-48
2022/05/09 09:09:29;;;;;;;6.97;2.85;;;16.80;84.10;;;;;;5064785;28;20037;-51
2022/05/09 09:12:29;;;;;;;10.45;2.97;;;16.90;83.40;;;;;;5052553;28;20045;-49
2022/05/09 09:15:01;;;;;;;11.93;3.47;;;17.00;81.30;;;;;;5050529;28;20086;-49
2022/05/09 09:17:36;;;;;;;10.05;3.22;;;17.20;81.20;;;;;;5055334;28;20405;-48
2022/05/09 09:20:22;;;;;;;8.50;2.17;;;17.20;81.60;;;;;;5051643;28;20044;-48
2022/05/09 09:23:17;;;;;;;7.93;2.83;;;17.40;80.80;;;;;;5049563;28;20045;-49
2022/05/09 09:26:01;;;;;;;8.70;2.65;;;17.50;78.70;;;;;;5061037;28;20461;-52
2022/05/09 09:28:49;;;;;;;13.55;3.63;;;17.60;78.60;;;;;;5054844;28;20037;-49
2022/05/09 09:31:29;;;;;;;9.43;3.05;;;17.80;76.70;;;;;;5060062;28;20037;-50
2022/05/09 09:34:21;;;;;;;10.48;3.28;;;17.80;76.70;;;;;;5052684;28;20067;-50
2022/05/09 09:37:01;;;;;;;10.88;3.28;;;17.90;77.60;;;;;;5051263;28;20075;-49
2022/05/09 09:39:28;;;;;;;13.43;2.70;;;18.00;76.30;;;;;;5057473;28;20127;-51
2022/05/09 09:41:55;;;;;;;11.45;2.47;;;18.10;77.60;;;;;;5062308;28;20024;-48
2022/05/09 09:44:25;;;;;;;8.00;2.90;;;18.10;76.70;;;;;;5057175;28;20037;-51
2022/05/09 09:47:11;;;;;;;10.90;3.17;;;18.10;75.10;;;;;;5060813;28;20032;-48
2022/05/09 09:49:40;;;;;;;6.10;1.92;;;18.10;76.20;;;;;;5055066;28;20115;-49
2022/05/09 09:52:26;;;;;;;11.45;2.13;;;18.20;74.30;;;;;;5048023;28;20072;-49
2022/05/09 09:55:01;;;;;;;6.50;2.00;;;18.30;72.30;;;;;;5053460;28;20041;-48
2022/05/09 09:57:32;;;;;;;3.95;1.40;;;18.40;72.80;;;;;;5049946;28;20384;-50
2022/05/09 10:00:19;;;;;;;9.38;1.92;;;18.50;71.50;;;;;;5057100;28;20032;-48
2022/05/09 10:02:45;;;;;;;8.00;2.72;;;18.60;70.70;;;;;;5056359;28;20090;-49
2022/05/09 10:05:15;;;;;;;6.78;1.55;;;18.60;71.40;;;;;;5046128;28;20558;-48
2022/05/09 10:07:44;;;;;;;14.50;2.83;;;18.80;71.60;;;;;;5053263;28;20545;-51
2022/05/09 10:10:12;;;;;;;8.82;1.73;;;18.80;73.40;;;;;;5067997;28;20037;-48
2022/05/09 10:12:50;;;;;;;8.35;2.42;;;18.90;70.60;;;;;;5049304;28;20128;-49
2022/05/09 10:15:36;;;;;;;4.70;1.35;;;19.10;70.50;;;;;;5048070;28;20041;-48
2022/05/09 10:18:18;;;;;;;4.78;1.33;;;19.20;68.80;;;;;;5057527;28;20342;-48
2022/05/09 10:20:48;;;;;;;6.25;1.45;;;19.30;68.40;;;;;;5060780;28;20032;-49
2022/05/09 10:26:19;;;;;;;3.53;1.00;;;19.40;69.10;;;;;;5055604;28;20100;-48
2022/05/09 10:28:45;;;;;;;;;;;19.40;68.40;;;;;;5054722;28;20033;-52
2022/05/09 10:31:39;;;;;;;12.48;2.95;;;19.40;66.50;;;;;;5052387;28;20381;-48
2022/05/09 10:34:13;;;;;;;6.45;1.48;;;19.40;68.60;;;;;;5052874;28;20531;-52
2022/05/09 10:36:55;;;;;;;7.60;1.40;;;19.40;68.20;;;;;;5048261;28;20680;-49
2022/05/09 10:39:31;;;;;;;8.45;2.67;;;19.40;68.80;;;;;;5053864;28;20040;-48
2022/05/09 10:42:07;;;;;;;10.48;1.73;;;19.50;67.50;;;;;;5049917;28;20428;-52
2022/05/09 10:44:47;;;;;;;9.10;2.53;;;19.60;67.00;;;;;;5054600;28;20040;-49
2022/05/09 10:47:34;;;;;;;5.20;1.90;;;19.70;65.90;;;;;;5052462;28;20048;-49
2022/05/09 10:50:39;;;;;;;7.63;1.65;;;19.80;66.50;;;;;;5052703;28;20040;-51
2022/05/09 10:53:34;;;;;;;8.50;1.83;;;19.80;65.00;;;;;;5024277;28;20041;-50
2022/05/09 10:56:15;;;;;;;11.32;1.65;;;19.90;63.90;;;;;;5052200;28;20612;-49
2022/05/09 10:59:04;;;;;;;10.15;2.13;;;20.00;67.80;;;;;;5054355;28;20095;-49
2022/05/09 11:01:33;;;;;;;8.90;1.70;;;20.10;65.10;;;;;;5058180;28;20055;-48
2022/05/09 11:04:00;;;;;;;10.57;2.20;;;20.10;65.50;;;;;;5060240;28;20086;-50
2022/05/09 11:06:31;;;;;;;5.82;1.50;;;20.20;65.40;;;;;;5054269;28;20036;-53
2022/05/09 11:09:07;;;;;;;6.35;1.95;;;20.30;65.90;;;;;;5053902;28;20051;-49
2022/05/09 11:11:52;;;;;;;4.13;1.58;;;20.30;64.80;;;;;;5058860;28;20058;-49
2022/05/09 11:14:23;;;;;;;6.65;1.88;;;20.40;66.90;;;;;;5053263;28;20036;-48
2022/05/09 11:17:08;;;;;;;10.13;2.17;;;20.30;66.30;;;;;;5050642;28;20064;-50
2022/05/09 11:20:02;;;;;;;8.75;1.58;;;20.30;66.90;;;;;;5053064;28;20037;-48
2022/05/09 11:22:35;;;;;;;8.77;1.27;;;20.30;66.00;;;;;;5052938;28;20478;-52
2022/05/09 11:25:23;;;;;;;4.03;0.90;;;20.30;66.70;;;;;;5051051;28;20045;-48
2022/05/09 11:28:23;;;;;;;7.95;2.22;;;20.40;66.40;;;;;;5053871;28;20496;-49
2022/05/09 11:31:18;;;;;;;7.68;1.42;;;20.40;65.40;;;;;;5050789;28;20178;-52
2022/05/09 11:34:10;;;;;;;10.35;1.30;;;20.50;66.20;;;;;;5050916;28;20048;-48
2022/05/09 11:37:02;;;;;;;8.15;1.70;;;20.50;66.40;;;;;;5053849;28;20048;-50
2022/05/09 11:40:00;;;;;;;8.50;1.58;;;20.60;64.10;;;;;;5054160;28;20548;-52
2022/05/09 11:46:03;;;;;;;9.75;2.42;;;20.70;64.60;;;;;;5052551;28;20048;-52
2022/05/09 11:48:48;;;;;;;8.88;1.70;;;20.90;63.90;;;;;;5057632;28;20055;-49
2022/05/09 11:51:44;;;;;;;8.98;1.20;;;20.90;64.40;;;;;;5047857;28;20098;-50
2022/05/09 11:54:27;;;;;;;7.72;1.75;;;21.00;66.60;;;;;;5044903;28;20835;-48
2022/05/09 11:56:55;;;;;;;8.38;1.63;;;21.10;67.90;;;;;;5054817;28;20041;-50
2022/05/09 11:59:30;;;;;;;6.70;1.33;;;21.20;65.90;;;;;;5058940;28;20094;-49
2022/05/09 12:02:09;;;;;;;5.60;2.00;;;21.20;65.00;;;;;;5054529;28;20029;-50
2022/05/09 12:04:48;;;;;;;4.18;1.60;;;21.30;66.10;;;;;;5048681;28;20123;-52
2022/05/09 12:07:39;;;;;;;6.82;1.55;;;21.30;65.70;;;;;;5047186;28;20063;-49
2022/05/09 12:10:11;;;;;;;6.43;2.00;;;21.40;64.20;;;;;;5059968;28;20072;-49
2022/05/09 12:12:37;;;;;;;7.07;1.77;;;21.50;65.60;;;;;;5049375;28;20041;-48
2022/05/09 12:15:15;;;;;;;;;;;21.50;65.50;;;;;;5051723;28;20505;-49
2022/05/09 12:17:53;;;;;;;7.07;1.08;;;21.60;69.10;;;;;;5057261;28;20011;-50
2022/05/09 12:20:23;;;;;;;6.28;1.02;;;21.60;65.10;;;;;;5067166;28;20045;-49
2022/05/09 12:22:51;;;;;;;5.18;1.38;;;21.60;64.80;;;;;;5051460;28;20470;-48
2022/05/09 12:25:44;;;;;;;6.55;1.70;;;21.70;62.70;;;;;;5050662;28;20100;-48
2022/05/09 12:28:16;;;;;;;8.20;1.85;;;21.70;64.40;;;;;;5063701;28;20052;-53
2022/05/09 12:30:44;;;;;;;7.30;1.77;;;21.70;65.20;;;;;;5055731;28;20056;-48
2022/05/09 12:33:15;;;;;;;6.45;1.65;;;21.70;63.60;;;;;;5048954;28;20449;-48
2022/05/09 12:35:43;;;;;;;4.82;1.33;;;21.70;64.20;;;;;;5050543;28;20494;-49
2022/05/09 12:38:13;;;;;;;4.13;1.38;;;21.70;64.80;;;;;;5052839;28;20084;-49
2022/05/09 12:40:39;;;;;;;4.43;1.48;;;21.80;64.70;;;;;;5052684;28;20037;-51
2022/05/09 12:43:05;;;;;;;;;;;21.70;64.90;;;;;;5053818;28;20052;-48
2022/05/09 12:45:31;;;;;;;6.18;1.45;;;21.70;62.70;;;;;;5054787;28;20002;-50
2022/05/09 12:47:58;;;;;;;13.70;1.55;;;21.80;63.30;;;;;;5050783;28;20059;-49
2022/05/09 12:50:25;;;;;;;5.60;1.25;;;21.80;62.10;;;;;;5058571;28;20518;-49
2022/05/09 12:52:59;;;;;;;7.55;2.00;;;21.80;62.60;;;;;;5048625;28;20100;-50
2022/05/09 12:58:40;;;;;;;5.18;1.42;;;21.80;63.40;;;;;;5059653;28;20045;-48
2022/05/09 13:01:20;;;;;;;14.55;1.80;;;21.80;63.70;;;;;;5053210;28;20044;-49
2022/05/09 13:03:49;;;;;;;5.90;1.25;;;21.90;62.30;;;;;;5051497;28;20033;-49
2022/05/09 13:06:18;;;;;;;8.82;1.17;;;21.90;61.50;;;;;;5050743;28;20052;-48
2022/05/09 13:08:44;;;;;;;5.10;1.48;;;21.90;61.00;;;;;;5051378;28;20053;-50
2022/05/09 13:11:14;;;;;;;;;;;21.90;61.00;;;;;;5056207;28;20045;-50
2022/05/09 13:13:44;;;;;;;7.13;1.13;;;21.80;61.20;;;;;;5051770;28;19921;-52
2022/05/09 13:16:17;;;;;;;7.78;1.60;;;21.90;60.40;;;;;;5051808;28;20041;-51
2022/05/09 13:18:45;;;;;;;8.00;1.45;;;22.00;61.50;;;;;;5051215;28;20557;-52
2022/05/09 13:21:11;;;;;;;5.70;1.23;;;22.00;61.30;;;;;;5051999;28;20037;-50
2022/05/09 13:23:40;;;;;;;;;;;22.10;62.50;;;;;;5057242;28;20077;-53